Ana Sayfa
METAR-TAF:

METAR-TAF

Havaalanları :

Harrisburg, Pensilvanya, Amerika Birleşik Devletleri

Enlem: 40-13-02N, Boylam: 076-51-05W, yükseklik: 106 m

Güncel hava durumu gözlemi

Rapor saat 20:56 UTC de 38 dakika önce yapıldı.
Rüzgar doğu/güneydoğudan 7 kt
Sıcaklık 16°C
Nem 25%
Basınç 1013 hPa
Görüş mesafesi: 16.1 km
8000 ft yükseklikte az bulutlu

METAR: KCXY 242056Z 11007KT 10SM FEW080 16/M04 A2991 RMK AO2 SLP132 T01561039 57030

Saat: 16:34 (21:34 UTC)


TAF: eksik

4.000'den fazla havaalanı için hava durumu gözlemleri ve tahminleri (METAR ve TAF raporları).

Kullanılabilir istasyonlar harita üzerinde sarı ve kırmızı noktalarla gösterilir.

İstasyonun adını görmek için fareyi noktanın üzerinde gezdirin.

Sonrasında hava gözlem ve tahminlerini görmek için tıklayın.

Haritayı değiştirmek için: yaklaştırmak için siyah artı işaretli yeşil düğmeye ve uzaklaştırmak için de eksi işaretli düğmeye hızla tıklayın; bitişik haritalar için yeşil okları kullanın.


METAR-TAF: